Time;durP1;ratioP1;P1;durP2;ratioP2;P2;SDS_P1;SDS_P2;PMS_P1;PMS_P2;Temp;Humidity;BMP_temperature;BMP_pressure;BME280_temperature;BME280_humidity;BME280_pressure;Samples;Min_cycle;Max_cycle;Signal;HPM_P1;HPM_P2
2022/12/02 00:01:26;;;;;;;0.00;0.00;;;;;;;2.99;100.00;99136.28;4953267;28;20589;-60
2022/12/02 00:03:52;;;;;;;0.00;0.00;;;;;;;3.05;100.00;99133.34;4953211;28;20233;-58
2022/12/02 00:06:28;;;;;;;0.00;0.00;;;;;;;2.98;100.00;99137.22;4953129;28;20229;-60
2022/12/02 00:09:03;;;;;;;0.00;0.00;;;;;;;2.93;100.00;99130.56;4950300;28;20245;-60
2022/12/02 00:11:31;;;;;;;0.00;0.00;;;;;;;2.92;100.00;99133.25;4949371;28;20244;-59
2022/12/02 00:14:00;;;;;;;0.00;0.00;;;;;;;2.94;100.00;99128.84;4953353;28;20237;-59
2022/12/02 00:16:27;;;;;;;0.10;0.10;;;;;;;2.90;100.00;99133.34;4956733;28;20230;-60
2022/12/02 00:18:55;;;;;;;0.00;0.00;;;;;;;2.92;100.00;99122.94;4953866;28;20234;-60
2022/12/02 00:21:22;;;;;;;0.00;0.00;;;;;;;2.85;100.00;99124.22;4952591;28;20240;-60
2022/12/02 00:23:49;;;;;;;0.00;0.00;;;;;;;2.85;100.00;99124.22;4953796;28;20230;-60
2022/12/02 00:26:17;;;;;;;0.00;0.00;;;;;;;2.88;100.00;99113.72;4955647;28;20225;-60
2022/12/02 00:28:44;;;;;;;0.00;0.00;;;;;;;2.83;100.00;99116.56;4949814;28;20225;-60
2022/12/02 00:31:10;;;;;;;0.00;0.00;;;;;;;2.83;100.00;99113.97;4953187;28;20245;-60
2022/12/02 00:33:37;;;;;;;0.00;0.00;;;;;;;2.85;100.00;99106.97;4951326;28;20217;-59
2022/12/02 00:36:04;;;;;;;0.00;0.00;;;;;;;2.90;100.00;99106.72;4956024;28;20630;-60
2022/12/02 00:38:30;;;;;;;0.00;0.00;;;;;;;2.91;100.00;99093.72;4952703;28;20405;-60
2022/12/02 00:40:57;;;;;;;0.00;0.00;;;;;;;2.94;100.00;99098.72;4952664;28;20706;-60
2022/12/02 00:48:53;;;;;;;0.00;0.00;;;;;;;2.95;100.00;99081.50;4949316;28;20233;-60
2022/12/02 00:51:19;;;;;;;0.00;0.00;;;;;;;2.96;100.00;99083.16;4950079;28;20222;-60
2022/12/02 00:53:46;;;;;;;0.00;0.00;;;;;;;2.93;100.00;99078.19;4954791;28;20313;-60
2022/12/02 00:56:13;;;;;;;0.10;0.10;;;;;;;2.97;100.00;99077.09;4955357;28;20221;-59
2022/12/02 00:58:41;;;;;;;0.00;0.00;;;;;;;2.99;100.00;99075.25;4957301;28;20288;-60
2022/12/02 01:01:08;;;;;;;0.00;0.00;;;;;;;3.03;100.00;99078.47;4951341;28;20256;-60
2022/12/02 01:03:36;;;;;;;0.00;0.00;;;;;;;3.02;100.00;99069.06;4953069;28;20256;-61
2022/12/02 01:06:03;;;;;;;0.03;0.03;;;;;;;3.00;100.00;99064.00;4950773;28;20238;-60
2022/12/02 01:08:30;;;;;;;0.07;0.07;;;;;;;3.03;100.00;99071.56;4949796;28;20229;-60
2022/12/02 01:10:57;;;;;;;0.00;0.00;;;;;;;3.00;100.00;99070.91;4958241;28;20244;-60
2022/12/02 01:13:26;;;;;;;0.00;0.00;;;;;;;3.06;100.00;99071.38;4965066;28;20230;-59
2022/12/02 01:15:54;;;;;;;0.00;0.00;;;;;;;3.02;100.00;99063.91;4948698;28;20297;-60
2022/12/02 01:18:21;;;;;;;0.00;0.00;;;;;;;3.04;100.00;99068.06;4951559;28;20277;-59
2022/12/02 01:20:48;;;;;;;0.03;0.03;;;;;;;3.10;100.00;99064.28;4947807;28;20258;-60
2022/12/02 01:23:14;;;;;;;0.00;0.00;;;;;;;3.07;100.00;99062.72;4950296;28;20230;-59
2022/12/02 01:25:42;;;;;;;0.10;0.10;;;;;;;3.01;100.00;99060.50;4950266;28;20229;-60
2022/12/02 01:28:09;;;;;;;0.00;0.00;;;;;;;2.93;100.00;99055.78;4951662;28;20229;-60
2022/12/02 01:30:36;;;;;;;0.00;0.00;;;;;;;2.92;100.00;99058.47;4956898;28;20233;-59
2022/12/02 01:33:04;;;;;;;0.00;0.00;;;;;;;2.98;100.00;99062.44;4956996;28;21108;-59
2022/12/02 01:35:30;;;;;;;0.00;0.00;;;;;;;3.03;100.00;99065.56;4948969;28;20230;-60
2022/12/02 01:37:57;;;;;;;0.00;0.00;;;;;;;2.99;100.00;99066.66;4953775;28;20261;-60
2022/12/02 01:40:25;;;;;;;0.00;0.00;;;;;;;2.92;100.00;99068.78;4952415;28;20226;-60
2022/12/02 01:42:52;;;;;;;0.00;0.00;;;;;;;3.01;100.00;99063.09;4950692;28;20588;-59
2022/12/02 01:45:19;;;;;;;0.10;0.10;;;;;;;2.98;100.00;99065.00;4953419;28;20218;-59
2022/12/02 01:47:49;;;;;;;0.00;0.00;;;;;;;2.92;100.00;99055.91;4947836;28;20587;-60
2022/12/02 01:50:18;;;;;;;0.00;0.00;;;;;;;2.88;100.00;99064.72;4956870;28;20233;-58
2022/12/02 01:52:47;;;;;;;0.00;0.00;;;;;;;2.78;100.00;99062.69;4957565;28;20241;-58
2022/12/02 01:55:19;;;;;;;0.00;0.00;;;;;;;2.85;100.00;99067.50;4957197;28;20748;-59
2022/12/02 01:57:46;;;;;;;0.00;0.00;;;;;;;2.76;100.00;99050.81;4959876;28;20246;-59
2022/12/02 02:00:14;;;;;;;0.00;0.00;;;;;;;2.80;100.00;99063.44;4970315;28;20240;-59
2022/12/02 02:02:41;;;;;;;0.00;0.00;;;;;;;2.79;100.00;99051.47;4955620;28;20241;-58
2022/12/02 02:05:11;;;;;;;0.00;0.00;;;;;;;2.78;100.00;99054.97;4961327;28;20242;-58
2022/12/02 02:07:41;;;;;;;0.00;0.00;;;;;;;2.83;100.00;99059.84;4960692;28;20226;-58
2022/12/02 02:10:08;;;;;;;0.00;0.00;;;;;;;2.80;100.00;99044.53;4978881;28;20234;-59
2022/12/02 02:12:36;;;;;;;0.00;0.00;;;;;;;2.82;100.00;99039.31;4974954;28;20218;-59
2022/12/02 02:15:04;;;;;;;0.00;0.00;;;;;;;2.82;100.00;99034.16;4954928;28;20253;-59
2022/12/02 02:17:32;;;;;;;0.00;0.00;;;;;;;2.79;100.00;99046.31;4970958;28;20571;-60
2022/12/02 02:19:59;;;;;;;0.00;0.00;;;;;;;2.68;100.00;99043.53;4977836;28;20283;-60
2022/12/02 02:22:33;;;;;;;0.10;0.10;;;;;;;2.79;100.00;99040.31;4959974;28;20230;-58
2022/12/02 02:25:01;;;;;;;0.00;0.00;;;;;;;2.77;100.00;99040.41;4978756;28;20245;-58
2022/12/02 02:27:28;;;;;;;0.10;0.10;;;;;;;2.74;100.00;99045.75;4959230;28;20681;-61
2022/12/02 02:29:54;;;;;;;0.00;0.00;;;;;;;2.76;100.00;99038.75;4961084;28;20732;-60
2022/12/02 02:32:21;;;;;;;0.00;0.00;;;;;;;2.75;100.00;99037.09;4961436;28;20728;-60
2022/12/02 02:34:48;;;;;;;0.00;0.00;;;;;;;2.75;100.00;99031.94;4959531;28;20237;-60
2022/12/02 02:37:15;;;;;;;0.00;0.00;;;;;;;2.76;100.00;99037.91;4960983;28;20236;-59
2022/12/02 02:39:45;;;;;;;0.00;0.00;;;;;;;2.79;100.00;99033.41;4975506;28;20218;-60
2022/12/02 02:42:14;;;;;;;0.00;0.00;;;;;;;2.82;100.00;99029.00;4955085;28;20234;-61
2022/12/02 02:44:41;;;;;;;0.10;0.10;;;;;;;2.83;100.00;99030.66;4959904;28;20673;-60
2022/12/02 02:47:08;;;;;;;0.00;0.00;;;;;;;2.85;100.00;99027.06;4963496;28;20238;-59
2022/12/02 02:49:34;;;;;;;0.00;0.00;;;;;;;2.86;100.00;99025.31;4960443;28;20641;-60
2022/12/02 02:52:01;;;;;;;0.00;0.00;;;;;;;2.80;100.00;99022.19;4960922;28;20237;-59
2022/12/02 02:54:28;;;;;;;0.00;0.00;;;;;;;2.83;100.00;99016.00;4960954;28;20288;-59
2022/12/02 02:56:56;;;;;;;0.10;0.10;;;;;;;2.80;100.00;99014.44;4960978;28;20262;-58
2022/12/02 02:59:24;;;;;;;0.00;0.00;;;;;;;2.84;100.00;99022.00;4962715;28;20757;-58
2022/12/02 03:01:51;;;;;;;0.00;0.00;;;;;;;2.83;100.00;99020.34;4958540;28;20234;-60
2022/12/02 03:04:20;;;;;;;0.00;0.00;;;;;;;2.87;100.00;99021.81;4962788;28;20247;-60
2022/12/02 03:06:49;;;;;;;0.10;0.10;;;;;;;2.76;100.00;99018.13;4960671;28;20291;-59
2022/12/02 03:09:21;;;;;;;0.10;0.10;;;;;;;2.79;100.00;99017.09;4959356;28;20214;-59
2022/12/02 03:11:50;;;;;;;0.00;0.00;;;;;;;2.64;100.00;99014.53;4975292;28;20889;-59
2022/12/02 03:14:18;;;;;;;0.10;0.10;;;;;;;2.68;100.00;99015.19;4962403;28;20221;-59
2022/12/02 03:16:48;;;;;;;0.10;0.10;;;;;;;2.62;100.00;99010.38;4960145;28;23609;-60
2022/12/02 03:19:15;;;;;;;0.00;0.00;;;;;;;2.65;100.00;99013.59;4962167;28;20228;-60
2022/12/02 03:21:42;;;;;;;0.00;0.00;;;;;;;2.63;100.00;99009.47;4960768;28;20226;-60
2022/12/02 03:24:09;;;;;;;0.10;0.10;;;;;;;2.68;100.00;99007.44;4962488;28;20236;-60
2022/12/02 03:26:36;;;;;;;0.00;0.00;;;;;;;2.65;100.00;99007.63;4960183;28;20225;-60
2022/12/02 03:29:04;;;;;;;0.00;0.00;;;;;;;2.64;100.00;99004.25;4963315;28;20286;-58
2022/12/02 03:31:33;;;;;;;0.00;0.00;;;;;;;2.67;100.00;99010.94;4959595;28;20721;-60
2022/12/02 03:34:01;;;;;;;0.00;0.00;;;;;;;2.65;100.00;99010.19;4963634;28;20740;-59
2022/12/02 03:36:28;;;;;;;0.00;0.00;;;;;;;2.65;100.00;99005.88;4961134;28;20705;-59
2022/12/02 03:38:55;;;;;;;0.10;0.10;;;;;;;2.62;100.00;99010.38;4962983;28;20249;-60
2022/12/02 03:41:24;;;;;;;0.00;0.00;;;;;;;2.61;100.00;99011.31;4962215;28;20237;-59
2022/12/02 03:43:51;;;;;;;0.00;0.00;;;;;;;2.61;100.00;99013.88;4961742;28;20237;-60
2022/12/02 03:46:17;;;;;;;0.00;0.00;;;;;;;2.63;100.00;99006.88;4963648;28;20229;-59
2022/12/02 03:48:47;;;;;;;0.00;0.00;;;;;;;2.58;100.00;99014.06;4958604;28;20308;-59
2022/12/02 03:51:16;;;;;;;0.00;0.00;;;;;;;2.58;100.00;99006.34;4961280;28;20233;-58
2022/12/02 03:53:42;;;;;;;0.00;0.00;;;;;;;2.56;100.00;99001.28;4956825;28;20270;-59
2022/12/02 03:56:10;;;;;;;0.00;0.00;;;;;;;2.65;100.00;99011.03;4962692;28;20627;-60
2022/12/02 03:58:40;;;;;;;0.10;0.10;;;;;;;2.60;100.00;99014.81;4961545;28;20217;-59
2022/12/02 04:03:56;;;;;;;0.00;0.00;;;;;;;2.59;100.00;99002.84;5754594;23;20238;-59
2022/12/02 04:06:24;;;;;;;0.00;0.00;;;;;;;2.59;100.00;99003.69;4976370;28;20296;-60
2022/12/02 04:08:50;;;;;;;0.00;0.00;;;;;;;2.62;100.00;99000.06;4975705;28;20241;-59
2022/12/02 04:11:17;;;;;;;0.00;0.00;;;;;;;2.58;100.00;98991.72;4979720;28;20312;-60
2022/12/02 04:13:44;;;;;;;0.00;0.00;;;;;;;2.64;100.00;98995.66;4975038;28;20228;-59
2022/12/02 04:16:10;;;;;;;0.10;0.10;;;;;;;2.57;100.00;98994.38;4984743;28;20229;-60
2022/12/02 04:18:37;;;;;;;0.00;0.00;;;;;;;2.59;100.00;98988.22;4982544;28;20248;-60
2022/12/02 04:21:06;;;;;;;0.00;0.00;;;;;;;2.61;100.00;98983.78;4984193;28;20225;-59
2022/12/02 04:23:34;;;;;;;0.00;0.00;;;;;;;2.56;100.00;98975.50;4982052;28;20593;-60
2022/12/02 04:26:01;;;;;;;0.00;0.00;;;;;;;2.64;100.00;98973.31;4984162;28;20233;-60
2022/12/02 04:28:28;;;;;;;0.00;0.00;;;;;;;2.64;100.00;98975.03;4983251;28;20236;-59
2022/12/02 04:33:30;;;;;;;0.00;0.00;;;;;;;2.62;100.00;98976.88;4941748;28;20223;-53
2022/12/02 04:35:56;;;;;;;0.03;0.03;;;;;;;2.63;100.00;98968.22;4948712;28;20231;-53
2022/12/02 04:38:23;;;;;;;0.00;0.00;;;;;;;2.72;100.00;98969.41;4949365;28;20234;-53
2022/12/02 04:40:51;;;;;;;0.10;0.10;;;;;;;2.72;100.00;98961.69;4947634;28;20234;-55
2022/12/02 04:43:17;;;;;;;0.00;0.00;;;;;;;2.62;100.00;98966.56;4967256;28;20281;-54
2022/12/02 04:45:44;;;;;;;0.00;0.00;;;;;;;2.63;100.00;98965.66;4964502;28;20589;-55
2022/12/02 04:48:10;;;;;;;0.00;0.00;;;;;;;2.65;100.00;98964.63;4968341;28;20229;-54
2022/12/02 04:50:37;;;;;;;0.10;0.10;;;;;;;2.65;100.00;98959.47;4966091;28;20222;-54
2022/12/02 04:53:07;;;;;;;0.10;0.10;;;;;;;2.62;100.00;98964.84;4967432;28;20641;-52
2022/12/02 04:55:33;;;;;;;0.10;0.10;;;;;;;2.62;100.00;98958.84;4965947;28;20228;-53
2022/12/02 04:58:01;;;;;;;0.00;0.00;;;;;;;2.56;100.00;98961.78;4967468;28;20249;-53
2022/12/02 05:00:28;;;;;;;0.00;0.00;;;;;;;2.56;100.00;98957.47;4965484;28;20238;-54
2022/12/02 05:02:55;;;;;;;0.00;0.00;;;;;;;2.57;100.00;98947.97;4966254;28;20369;-54
2022/12/02 05:05:22;;;;;;;0.10;0.10;;;;;;;2.54;100.00;98951.59;4968075;28;20233;-55
2022/12/02 05:07:49;;;;;;;0.00;0.00;;;;;;;2.50;100.00;98956.06;4965208;28;20555;-53
2022/12/02 05:10:18;;;;;;;0.10;0.10;;;;;;;2.53;100.00;98949.91;4966257;28;20535;-55
2022/12/02 05:12:45;;;;;;;0.00;0.00;;;;;;;2.57;100.00;98953.13;4963912;28;20354;-55
2022/12/02 05:15:13;;;;;;;0.00;0.00;;;;;;;2.42;100.00;98947.97;4966746;28;20232;-55
2022/12/02 05:17:42;;;;;;;0.00;0.00;;;;;;;2.47;100.00;98948.53;4964473;28;20328;-55
2022/12/02 05:20:10;;;;;;;0.00;0.00;;;;;;;2.38;100.00;98943.91;4967874;28;20233;-53
2022/12/02 05:22:37;;;;;;;0.00;0.00;;;;;;;2.38;100.00;98931.03;4964003;28;20237;-52
2022/12/02 05:25:05;;;;;;;0.00;0.00;;;;;;;2.40;100.00;98938.69;4964707;28;20225;-55
2022/12/02 05:27:31;;;;;;;0.00;0.00;;;;;;;2.41;100.00;98936.00;4960207;28;20679;-53
2022/12/02 05:29:58;;;;;;;0.10;0.10;;;;;;;2.41;100.00;98935.19;4965653;28;20238;-53
2022/12/02 05:32:29;;;;;;;0.00;0.00;;;;;;;2.45;100.00;98932.31;4965963;28;20237;-54
2022/12/02 05:34:55;;;;;;;0.00;0.00;;;;;;;2.47;100.00;98935.63;4965125;28;20238;-54
2022/12/02 05:37:22;;;;;;;0.00;0.00;;;;;;;2.48;100.00;98942.44;4967460;28;20246;-54
2022/12/02 05:39:48;;;;;;;0.10;0.10;;;;;;;2.50;100.00;98939.78;4964597;28;20288;-55
2022/12/02 05:42:17;;;;;;;0.10;0.10;;;;;;;2.54;100.00;98937.84;4967639;28;20233;-54
2022/12/02 05:44:44;;;;;;;0.00;0.00;;;;;;;2.51;100.00;98942.28;4962633;28;20237;-55
2022/12/02 05:47:14;;;;;;;0.00;0.00;;;;;;;2.51;100.00;98946.59;4967538;28;20230;-55
2022/12/02 05:49:44;;;;;;;0.00;0.00;;;;;;;2.48;100.00;98942.44;4964224;28;20238;-53
2022/12/02 05:52:22;;;;;;;0.00;0.00;;;;;;;2.48;100.00;98936.47;4966477;28;20236;-55
2022/12/02 05:54:52;;;;;;;0.00;0.00;;;;;;;2.51;100.00;98938.88;4963406;28;20780;-55
2022/12/02 05:57:24;;;;;;;0.00;0.00;;;;;;;2.50;100.00;98939.78;4967357;28;20240;-55
2022/12/02 05:59:55;;;;;;;0.00;0.00;;;;;;;2.56;100.00;98939.44;4964646;28;20221;-53
2022/12/02 06:02:26;;;;;;;0.00;0.00;;;;;;;2.50;100.00;98940.63;4966517;28;20233;-53
2022/12/02 06:04:55;;;;;;;0.10;0.10;;;;;;;2.49;100.00;98938.94;4962774;28;20237;-55
2022/12/02 06:07:22;;;;;;;0.00;0.00;;;;;;;2.46;100.00;98933.97;4966835;28;20705;-52
2022/12/02 06:09:54;;;;;;;0.00;0.00;;;;;;;2.47;100.00;98940.78;4963724;28;20230;-54
2022/12/02 06:12:21;;;;;;;0.00;0.00;;;;;;;2.50;100.00;98934.66;4965847;28;20244;-54
2022/12/02 06:14:51;;;;;;;0.00;0.00;;;;;;;2.48;100.00;98939.06;4963089;28;20241;-55
2022/12/02 06:17:18;;;;;;;0.00;0.00;;;;;;;2.49;100.00;98935.56;4966990;28;20258;-55
2022/12/02 06:19:50;;;;;;;0.00;0.00;;;;;;;2.50;100.00;98939.78;4964594;28;20292;-53
2022/12/02 06:22:22;;;;;;;0.00;0.00;;;;;;;2.48;100.00;98937.28;4966888;28;20784;-55
2022/12/02 06:24:49;;;;;;;0.00;0.00;;;;;;;2.52;100.00;98940.53;4963247;28;20258;-54
2022/12/02 06:27:18;;;;;;;0.10;0.10;;;;;;;2.50;100.00;98930.31;4966629;28;20883;-55
2022/12/02 06:29:49;;;;;;;0.00;0.00;;;;;;;2.56;100.00;98933.44;4963185;28;20236;-54
2022/12/02 06:32:20;;;;;;;0.00;0.00;;;;;;;2.51;100.00;98924.22;4981328;28;20787;-56
2022/12/02 06:34:49;;;;;;;0.00;0.00;;;;;;;2.53;100.00;98929.31;4963740;28;20296;-55
2022/12/02 06:37:21;;;;;;;0.10;0.10;;;;;;;2.54;100.00;98928.38;4966599;28;20256;-56
2022/12/02 06:39:50;;;;;;;0.00;0.00;;;;;;;2.54;100.00;98927.53;4961982;28;20291;-56
2022/12/02 06:42:21;;;;;;;0.00;0.00;;;;;;;2.53;100.00;98925.88;4966322;28;20928;-56
2022/12/02 06:45:07;;;;;;;0.10;0.10;;;;;;;2.51;100.00;98924.22;4962798;28;20230;-56
2022/12/02 06:48:06;;;;;;;0.10;0.10;;;;;;;2.55;100.00;98922.31;4963818;28;20268;-56
2022/12/02 06:50:35;;;;;;;0.00;0.00;;;;;;;2.62;100.00;98933.06;4962995;28;20237;-54
2022/12/02 06:53:24;;;;;;;0.00;0.00;;;;;;;2.56;100.00;98929.13;4964079;28;20236;-55
2022/12/02 06:55:52;;;;;;;0.00;0.00;;;;;;;2.47;100.00;98925.34;4962837;28;20290;-54
2022/12/02 06:58:32;;;;;;;0.00;0.00;;;;;;;2.52;100.00;98925.06;4978360;28;20237;-55
2022/12/02 07:01:20;;;;;;;0.00;0.00;;;;;;;2.47;100.00;98920.19;4962987;28;20237;-54
2022/12/02 07:03:52;;;;;;;0.10;0.10;;;;;;;2.47;100.00;98927.91;4962920;28;20236;-55
2022/12/02 07:06:23;;;;;;;0.10;0.10;;;;;;;2.50;100.00;98926.91;4966329;28;20233;-55
2022/12/02 07:08:51;;;;;;;0.00;0.00;;;;;;;2.45;100.00;98923.78;4962437;28;20300;-53
2022/12/02 07:11:48;;;;;;;0.00;0.00;;;;;;;2.38;100.00;98923.31;4966068;28;20679;-53
2022/12/02 07:14:19;;;;;;;0.10;0.10;;;;;;;2.50;100.00;98926.91;4961738;28;20264;-52
2022/12/02 07:16:46;;;;;;;0.00;0.00;;;;;;;2.50;100.00;98925.16;4963241;28;20324;-53
2022/12/02 07:19:16;;;;;;;0.00;0.00;;;;;;;2.49;100.00;98928.66;4965329;28;20222;-52
2022/12/02 07:21:42;;;;;;;0.10;0.10;;;;;;;2.56;100.00;98928.28;4962913;28;20711;-54
2022/12/02 07:24:14;;;;;;;0.00;0.00;;;;;;;2.57;100.00;98929.94;4964700;28;20233;-54
2022/12/02 07:26:44;;;;;;;0.00;0.00;;;;;;;2.55;100.00;98930.03;4962835;28;20317;-53
2022/12/02 07:29:14;;;;;;;0.00;0.00;;;;;;;2.58;100.00;98924.72;4965887;28;20234;-53
2022/12/02 07:31:43;;;;;;;0.00;0.00;;;;;;;2.64;100.00;98920.91;4961584;28;20594;-53
2022/12/02 07:34:11;;;;;;;0.00;0.00;;;;;;;2.67;100.00;98925.88;4964956;28;20230;-53
2022/12/02 07:36:37;;;;;;;0.00;0.00;;;;;;;2.70;100.00;98925.69;4963086;28;20256;-54
2022/12/02 07:39:04;;;;;;;0.10;0.10;;;;;;;2.70;100.00;98920.53;4963629;28;20328;-55
2022/12/02 07:41:33;;;;;;;0.00;0.00;;;;;;;2.74;100.00;98929.75;4977831;28;20629;-55
2022/12/02 07:43:59;;;;;;;0.00;0.00;;;;;;;2.79;100.00;98925.13;4976831;28;20276;-52
2022/12/02 07:46:26;;;;;;;0.10;0.10;;;;;;;2.87;100.00;98927.22;4963473;28;20257;-52
2022/12/02 07:48:53;;;;;;;0.00;0.00;;;;;;;2.92;100.00;98924.38;4964747;28;20245;-53
2022/12/02 07:51:19;;;;;;;0.10;0.10;;;;;;;2.98;100.00;98918.00;4964979;28;20586;-54
2022/12/02 07:53:46;;;;;;;0.00;0.00;;;;;;;3.07;100.00;98920.03;4961530;28;20238;-53
2022/12/02 07:56:12;;;;;;;0.00;0.00;;;;;;;3.01;100.00;98926.41;4965835;28;20559;-54
2022/12/02 07:58:40;;;;;;;0.07;0.07;;;;;;;3.07;100.00;98918.28;4973778;28;20234;-55
2022/12/02 08:01:07;;;;;;;0.10;0.10;;;;;;;2.96;100.00;98915.53;4964502;28;20238;-55
2022/12/02 08:03:33;;;;;;;0.10;0.10;;;;;;;2.84;100.00;98916.28;4963356;28;20229;-53
2022/12/02 08:06:00;;;;;;;0.10;0.10;;;;;;;2.80;100.00;98920.78;4967649;28;20599;-53
2022/12/02 08:08:27;;;;;;;0.00;0.00;;;;;;;2.74;100.00;98916.84;4967147;28;20244;-53
2022/12/02 08:10:53;;;;;;;0.00;0.00;;;;;;;2.73;100.00;98915.19;4968539;28;20241;-53
2022/12/02 08:13:22;;;;;;;0.00;0.00;;;;;;;2.78;100.00;98922.63;4968370;28;20264;-53
2022/12/02 08:15:50;;;;;;;0.00;0.00;;;;;;;2.79;100.00;98919.97;4965736;28;20234;-55
2022/12/02 08:18:17;;;;;;;0.10;0.10;;;;;;;2.78;100.00;98918.31;4969389;28;20245;-54
2022/12/02 08:20:44;;;;;;;0.10;0.10;;;;;;;2.80;100.00;98913.91;4965654;28;20280;-54
2022/12/02 08:23:10;;;;;;;0.10;0.10;;;;;;;2.93;100.00;98913.97;4967928;28;20234;-53
2022/12/02 08:25:39;;;;;;;0.03;0.03;;;;;;;2.85;100.00;98915.38;4966498;28;20234;-53
2022/12/02 08:28:05;;;;;;;0.10;0.10;;;;;;;2.84;100.00;98913.72;4968162;28;20237;-53
2022/12/02 08:30:32;;;;;;;0.10;0.10;;;;;;;2.91;100.00;98910.66;4966355;28;20796;-53
2022/12/02 08:33:00;;;;;;;0.00;0.00;;;;;;;2.85;100.00;98907.63;4967904;28;20242;-55
2022/12/02 08:35:26;;;;;;;0.00;0.00;;;;;;;2.80;100.00;98907.91;4966484;28;20222;-53
2022/12/02 08:37:53;;;;;;;0.00;0.00;;;;;;;2.94;100.00;98907.88;4968091;28;20253;-55
2022/12/02 08:40:20;;;;;;;0.00;0.00;;;;;;;3.01;100.00;98902.34;4968407;28;20705;-54
2022/12/02 08:42:46;;;;;;;0.00;0.00;;;;;;;2.99;100.00;98904.19;4964768;28;20242;-52
2022/12/02 08:45:13;;;;;;;0.00;0.00;;;;;;;2.95;100.00;98903.56;4967327;28;20218;-54
2022/12/02 08:47:40;;;;;;;0.00;0.00;;;;;;;2.87;100.00;98900.63;4966256;28;20230;-55
2022/12/02 08:50:10;;;;;;;0.10;0.10;;;;;;;2.90;100.00;98893.53;4967763;28;20748;-55
2022/12/02 08:52:36;;;;;;;0.00;0.00;;;;;;;2.96;100.00;98894.91;4965732;28;20230;-53
2022/12/02 08:55:03;;;;;;;0.00;0.00;;;;;;;3.04;100.00;98894.41;4966931;28;20571;-53
2022/12/02 08:57:30;;;;;;;0.00;0.00;;;;;;;3.22;100.00;98900.16;4963764;28;20218;-53
2022/12/02 08:59:56;;;;;;;0.00;0.00;;;;;;;3.26;100.00;98899.03;4967128;28;20247;-53
2022/12/02 09:02:25;;;;;;;0.10;0.10;;;;;;;3.28;100.00;98896.38;4965956;28;20233;-54
2022/12/02 09:04:52;;;;;;;0.00;0.00;;;;;;;3.19;100.00;98898.63;4964739;28;20233;-55
2022/12/02 09:07:22;;;;;;;0.00;0.00;;;;;;;3.31;100.00;98896.19;4964117;28;20233;-53
2022/12/02 09:09:49;;;;;;;0.00;0.00;;;;;;;3.17;100.00;98897.88;4958649;28;20237;-55
2022/12/02 09:12:15;;;;;;;0.10;0.10;;;;;;;3.31;100.00;98893.59;4967456;28;20238;-54
2022/12/02 09:14:42;;;;;;;0.00;0.00;;;;;;;3.32;100.00;98892.69;4963879;28;20237;-54
2022/12/02 09:17:10;;;;;;;0.00;0.00;;;;;;;3.43;100.00;98897.16;4967269;28;20229;-53
2022/12/02 09:19:37;;;;;;;0.10;0.10;;;;;;;3.36;100.00;98891.56;4964803;28;20241;-53
2022/12/02 09:22:03;;;;;;;0.00;0.00;;;;;;;3.39;100.00;98892.19;4965348;28;20555;-54
2022/12/02 09:24:32;;;;;;;0.00;0.00;;;;;;;3.43;100.00;98894.56;4963699;28;20230;-52
2022/12/02 09:26:58;;;;;;;0.00;0.00;;;;;;;3.46;100.00;98896.94;4965496;28;20658;-51
2022/12/02 09:29:27;;;;;;;0.00;0.00;;;;;;;3.55;100.00;98888.63;4965821;28;20284;-55
2022/12/02 09:31:53;;;;;;;0.00;0.00;;;;;;;3.46;100.00;98894.38;4964156;28;20256;-56
2022/12/02 09:34:20;;;;;;;0.00;0.00;;;;;;;3.48;100.00;98892.50;4966361;28;20226;-53
2022/12/02 09:36:48;;;;;;;0.00;0.00;;;;;;;3.61;100.00;98900.31;4963669;28;20240;-55
2022/12/02 09:39:14;;;;;;;0.00;0.00;;;;;;;3.64;100.00;98895.75;4966954;28;20245;-53
2022/12/02 09:41:43;;;;;;;0.00;0.00;;;;;;;3.60;100.00;98889.13;4963413;28;20566;-54
2022/12/02 09:44:10;;;;;;;0.00;0.00;;;;;;;3.57;100.00;98901.44;4966428;28;20226;-55
2022/12/02 09:46:37;;;;;;;0.00;0.00;;;;;;;3.53;100.00;98890.47;4964889;28;20233;-53
2022/12/02 09:49:04;;;;;;;0.00;0.00;;;;;;;3.55;100.00;98888.63;4966347;28;20230;-56
2022/12/02 09:51:32;;;;;;;0.00;0.00;;;;;;;3.62;100.00;98889.06;4963986;28;20236;-54
2022/12/02 09:54:00;;;;;;;0.00;0.00;;;;;;;3.58;100.00;98890.19;4965515;28;20249;-56
2022/12/02 09:56:27;;;;;;;0.00;0.00;;;;;;;3.62;100.00;98887.28;4963861;28;20221;-53
2022/12/02 09:58:56;;;;;;;0.00;0.00;;;;;;;3.67;100.00;98884.41;4964978;28;20233;-53
2022/12/02 10:01:25;;;;;;;0.00;0.00;;;;;;;3.64;100.00;98884.63;4966330;28;20234;-55
2022/12/02 10:03:55;;;;;;;0.10;0.10;;;;;;;3.68;100.00;98880.91;4963036;28;20229;-55
2022/12/02 10:06:25;;;;;;;0.03;0.03;;;;;;;3.71;100.00;98882.44;4966338;28;20214;-54
2022/12/02 10:08:53;;;;;;;0.00;0.00;;;;;;;3.74;100.00;98887.41;4961444;28;20237;-54
2022/12/02 10:11:23;;;;;;;0.00;0.00;;;;;;;3.69;100.00;98883.38;4966356;28;20247;-54
2022/12/02 10:13:53;;;;;;;0.00;0.00;;;;;;;3.77;100.00;98884.63;4963242;28;20243;-54
2022/12/02 10:16:21;;;;;;;0.00;0.00;;;;;;;3.82;100.00;98869.66;4965804;28;20238;-54
2022/12/02 10:18:48;;;;;;;0.00;0.00;;;;;;;3.82;100.00;98872.25;4962584;28;20233;-55
2022/12/02 10:21:15;;;;;;;0.10;0.10;;;;;;;3.87;100.00;98861.59;4966454;28;20260;-56
2022/12/02 10:23:53;;;;;;;0.10;0.10;;;;;;;3.91;100.00;98861.31;4963112;28;20237;-54
2022/12/02 10:26:20;;;;;;;0.00;0.00;;;;;;;3.94;100.00;98868.84;4965049;28;20230;-53
2022/12/02 10:28:59;;;;;;;0.10;0.10;;;;;;;3.96;100.00;98864.41;4962489;28;20245;-55
2022/12/02 10:31:27;;;;;;;0.07;0.07;;;;;;;3.96;100.00;98861.81;4962683;28;20338;-56
2022/12/02 10:33:56;;;;;;;0.00;0.00;;;;;;;4.00;100.00;98857.28;4965140;28;20231;-55
2022/12/02 10:36:31;;;;;;;0.10;0.10;;;;;;;4.11;100.00;98859.16;4965972;28;20742;-53
2022/12/02 10:39:17;;;;;;;0.10;0.10;;;;;;;4.07;100.00;98849.94;4963356;28;20335;-56
2022/12/02 10:41:44;;;;;;;0.03;0.03;;;;;;;4.07;100.00;98847.38;4961926;28;20244;-55
2022/12/02 10:44:16;;;;;;;0.03;0.03;;;;;;;4.03;100.00;98845.91;4965987;28;20241;-56
2022/12/02 10:46:45;;;;;;;0.00;0.00;;;;;;;4.12;100.00;98847.88;4963094;28;20699;-54
2022/12/02 10:49:30;;;;;;;0.07;0.07;;;;;;;4.18;100.00;98849.22;4965313;28;20225;-55
2022/12/02 10:52:01;;;;;;;0.00;0.00;;;;;;;4.22;100.00;98845.50;4962757;28;20642;-54
2022/12/02 10:54:30;;;;;;;0.00;0.00;;;;;;;4.28;100.00;98839.91;4962085;28;20261;-54
2022/12/02 10:57:01;;;;;;;0.03;0.03;;;;;;;4.32;100.00;98841.34;4965065;28;20237;-55
2022/12/02 10:59:28;;;;;;;0.00;0.00;;;;;;;4.29;100.00;98839.78;4950198;28;20241;-55
2022/12/02 11:01:56;;;;;;;0.00;0.00;;;;;;;4.34;100.00;98831.72;4964414;28;20237;-56
2022/12/02 11:04:24;;;;;;;0.00;0.00;;;;;;;4.38;100.00;98829.75;4964914;28;20234;-55
2022/12/02 11:06:54;;;;;;;0.03;0.03;;;;;;;4.42;100.00;98826.00;4962542;28;20852;-56
2022/12/02 11:09:22;;;;;;;0.00;0.00;;;;;;;4.47;100.00;98830.88;4965302;28;20241;-53
2022/12/02 11:11:52;;;;;;;0.10;0.10;;;;;;;4.63;100.00;98822.88;4961629;28;20708;-56
2022/12/02 11:14:53;;;;;;;0.00;0.00;;;;;;;4.63;100.00;98815.94;4964983;28;20237;-53
2022/12/02 11:17:48;;;;;;;0.00;0.00;;;;;;;4.60;100.00;98823.91;4962005;28;20233;-55
2022/12/02 11:20:34;;;;;;;0.00;0.00;;;;;;;4.53;100.00;98810.59;4961832;28;20230;-55
2022/12/02 11:23:26;;;;;;;0.00;0.00;;;;;;;4.43;100.00;98809.56;4962470;28;20249;-53
2022/12/02 11:26:11;;;;;;;0.00;0.00;;;;;;;4.43;100.00;98812.16;4963069;28;20229;-53
2022/12/02 11:29:03;;;;;;;0.10;0.10;;;;;;;4.42;100.00;98813.94;4963218;28;20630;-55
2022/12/02 11:31:29;;;;;;;0.00;0.00;;;;;;;4.36;100.00;98808.34;4947385;28;20244;-53
2022/12/02 11:34:02;;;;;;;0.10;0.10;;;;;;;4.31;100.00;98807.84;4964211;28;20229;-53
2022/12/02 11:36:30;;;;;;;0.00;0.00;;;;;;;4.31;100.00;98802.66;4962449;28;20233;-55
2022/12/02 11:39:03;;;;;;;0.00;0.00;;;;;;;4.23;100.00;98804.06;4967713;28;20247;-54
2022/12/02 11:41:51;;;;;;;0.10;0.10;;;;;;;4.28;100.00;98803.72;4966927;28;20234;-53
2022/12/02 11:44:24;;;;;;;0.00;0.00;;;;;;;4.23;100.00;98808.38;4968085;28;20313;-56
2022/12/02 11:46:54;;;;;;;0.10;0.10;;;;;;;4.19;100.00;98801.78;4966792;28;20304;-55
2022/12/02 11:49:33;;;;;;;0.00;0.00;;;;;;;3.99;100.00;98796.22;4968682;28;20336;-54
2022/12/02 11:52:13;;;;;;;0.00;0.00;;;;;;;4.05;100.00;98797.56;4965161;28;20240;-54
2022/12/02 11:54:41;;;;;;;0.10;0.10;;;;;;;3.93;100.00;98786.28;4965629;28;20248;-54